createdAt,value
2017-08-26T00:01:27.692Z,93.20
2017-08-26T00:03:55.559Z,93.10
2017-08-26T00:06:23.289Z,92.90
2017-08-26T00:08:51.056Z,92.80
2017-08-26T00:11:18.771Z,92.70
2017-08-26T00:13:46.618Z,92.80
2017-08-26T00:16:14.486Z,92.80
2017-08-26T00:18:42.353Z,92.60
2017-08-26T00:21:10.219Z,92.50
2017-08-26T00:23:37.938Z,92.40
2017-08-26T00:26:05.750Z,92.30
2017-08-26T00:28:33.465Z,92.10
2017-08-26T00:31:01.231Z,92.20
2017-08-26T00:33:28.966Z,92.20
2017-08-26T00:35:56.809Z,92.20
2017-08-26T00:38:24.534Z,91.90
2017-08-26T00:40:52.287Z,92.30
2017-08-26T00:43:20.206Z,92.70
2017-08-26T00:45:48.080Z,92.90
2017-08-26T00:48:15.834Z,93.00
2017-08-26T00:50:43.707Z,92.90
2017-08-26T00:53:11.463Z,92.90
2017-08-26T00:55:39.235Z,92.80
2017-08-26T00:58:07.105Z,92.70
2017-08-26T01:00:34.841Z,92.50
2017-08-26T01:03:02.746Z,92.50
2017-08-26T01:05:30.603Z,92.30
2017-08-26T01:07:58.576Z,92.30
2017-08-26T01:10:26.438Z,92.30
2017-08-26T01:12:54.199Z,92.30
2017-08-26T01:15:21.946Z,92.40
2017-08-26T01:17:49.836Z,92.40
2017-08-26T01:20:17.704Z,92.40
2017-08-26T01:22:45.499Z,92.30
2017-08-26T01:25:13.231Z,92.20
2017-08-26T01:27:41.103Z,92.10
2017-08-26T01:30:08.835Z,92.10
2017-08-26T01:32:36.621Z,92.30
2017-08-26T01:35:04.495Z,92.40
2017-08-26T01:37:32.366Z,92.20
2017-08-26T01:40:00.230Z,92.30
2017-08-26T01:42:28.098Z,92.50
2017-08-26T01:44:55.965Z,92.70
2017-08-26T01:47:23.832Z,92.60
2017-08-26T01:49:51.570Z,92.60
2017-08-26T01:52:19.303Z,92.40
2017-08-26T01:54:47.126Z,92.30
2017-08-26T01:57:14.869Z,92.20
2017-08-26T01:59:42.656Z,92.20
2017-08-26T02:02:10.528Z,92.40
2017-08-26T02:04:38.390Z,92.60
2017-08-26T02:07:06.257Z,92.30
2017-08-26T02:09:33.998Z,92.20
2017-08-26T02:12:01.893Z,93.30
2017-08-26T02:14:29.757Z,93.90
2017-08-26T02:16:57.625Z,93.60
2017-08-26T02:19:25.350Z,93.30
2017-08-26T02:21:53.079Z,93.20
2017-08-26T02:24:20.812Z,93.40
2017-08-26T02:26:48.540Z,94.70
2017-08-26T02:29:16.268Z,95.10
2017-08-26T02:31:44.008Z,94.60
2017-08-26T02:34:11.734Z,94.30
2017-08-26T02:36:39.459Z,94.00
2017-08-26T02:39:07.214Z,93.80
2017-08-26T02:41:34.942Z,93.50
2017-08-26T02:44:02.658Z,93.70
2017-08-26T02:46:30.505Z,93.70
2017-08-26T02:48:58.230Z,93.60
2017-08-26T02:51:25.942Z,93.80
2017-08-26T02:53:53.675Z,93.90
2017-08-26T02:56:21.397Z,93.80
2017-08-26T02:58:49.115Z,93.70
2017-08-26T03:01:16.846Z,93.50
2017-08-26T03:03:44.572Z,93.50
2017-08-26T03:06:12.294Z,93.30
2017-08-26T03:08:40.011Z,93.20
2017-08-26T03:11:07.836Z,93.10
2017-08-26T03:13:35.558Z,93.20
2017-08-26T03:16:03.286Z,93.30
2017-08-26T03:18:31.018Z,93.40
2017-08-26T03:20:58.896Z,93.50
2017-08-26T03:23:26.766Z,93.40
2017-08-26T03:25:54.482Z,93.40
2017-08-26T03:28:22.213Z,93.50
2017-08-26T03:30:49.952Z,93.50
2017-08-26T03:33:17.683Z,93.40
2017-08-26T03:35:45.406Z,93.60
2017-08-26T03:38:13.122Z,93.50
2017-08-26T03:40:40.838Z,93.50
2017-08-26T03:43:08.553Z,93.40
2017-08-26T03:45:36.333Z,94.00
2017-08-26T03:48:04.062Z,93.70
2017-08-26T03:50:31.779Z,93.70
2017-08-26T03:52:59.538Z,93.50
2017-08-26T03:55:27.258Z,93.70
2017-08-26T03:57:55.061Z,93.50
2017-08-26T04:00:22.806Z,93.30
2017-08-26T04:02:50.592Z,93.20
2017-08-26T04:05:18.460Z,93.30
2017-08-26T04:07:46.325Z,93.40
2017-08-26T04:10:14.192Z,93.20
2017-08-26T04:12:42.060Z,92.90
2017-08-26T04:15:09.931Z,92.90
2017-08-26T04:17:37.670Z,93.50
2017-08-26T04:20:05.393Z,93.30
2017-08-26T04:22:33.114Z,92.90
2017-08-26T04:25:00.826Z,93.00
2017-08-26T04:27:28.653Z,93.00
2017-08-26T04:29:56.371Z,93.00
2017-08-26T04:32:24.461Z,92.90
2017-08-26T04:34:52.195Z,92.90
2017-08-26T04:37:19.971Z,92.80
2017-08-26T04:39:51.292Z,92.80
2017-08-26T04:42:23.019Z,92.80
2017-08-26T04:44:54.334Z,92.80
2017-08-26T04:47:25.572Z,92.80
2017-08-26T04:49:56.598Z,92.90
2017-08-26T04:52:28.982Z,92.90
2017-08-26T04:55:01.485Z,92.90
2017-08-26T04:57:33.980Z,92.80
2017-08-26T05:00:05.472Z,94.20
2017-08-26T05:02:36.662Z,95.40
2017-08-26T05:05:07.548Z,95.90
2017-08-26T05:07:38.322Z,95.60
2017-08-26T05:10:08.829Z,95.40
2017-08-26T05:12:39.532Z,95.10
2017-08-26T05:15:11.361Z,94.80
2017-08-26T05:17:42.365Z,94.70
2017-08-26T05:20:14.199Z,94.50
2017-08-26T05:22:45.550Z,94.20
2017-08-26T05:25:17.154Z,94.90
2017-08-26T05:27:48.364Z,95.70
2017-08-26T05:30:21.101Z,95.70
2017-08-26T05:32:52.691Z,95.70
2017-08-26T05:35:26.793Z,95.30
2017-08-26T05:37:57.730Z,94.90
2017-08-26T05:40:25.583Z,94.70
2017-08-26T05:42:53.334Z,94.50
2017-08-26T05:45:21.099Z,94.10
2017-08-26T05:47:48.843Z,93.90
2017-08-26T05:50:16.587Z,93.80
2017-08-26T05:52:44.331Z,93.70
2017-08-26T05:55:12.062Z,93.40
2017-08-26T05:57:39.789Z,93.10
2017-08-26T06:00:07.555Z,93.70
2017-08-26T06:02:35.279Z,93.70
2017-08-26T06:05:03.007Z,93.30
2017-08-26T06:07:30.742Z,93.40
2017-08-26T06:09:58.474Z,93.30
2017-08-26T06:12:26.206Z,93.30
2017-08-26T06:14:53.932Z,93.20
2017-08-26T06:17:21.658Z,92.50
2017-08-26T06:19:49.396Z,92.50
2017-08-26T06:22:17.110Z,92.20
2017-08-26T06:24:44.836Z,92.30
2017-08-26T06:27:12.558Z,92.20
2017-08-26T06:29:40.293Z,91.30
2017-08-26T06:32:08.012Z,90.10
2017-08-26T06:34:35.723Z,86.50
2017-08-26T06:37:03.446Z,85.20
2017-08-26T06:39:31.178Z,84.30
2017-08-26T06:41:58.895Z,83.80
2017-08-26T06:44:26.609Z,83.60
2017-08-26T06:46:54.334Z,81.70
2017-08-26T06:49:22.066Z,82.20
2017-08-26T06:51:49.793Z,81.30
2017-08-26T06:54:17.515Z,79.80
2017-08-26T06:56:45.234Z,78.20
2017-08-26T06:59:12.947Z,76.20
2017-08-26T07:01:40.663Z,75.50
2017-08-26T07:04:08.375Z,77.10
2017-08-26T07:06:36.082Z,77.80
2017-08-26T07:09:03.908Z,77.10
2017-08-26T07:11:31.624Z,78.50
2017-08-26T07:13:59.350Z,81.80
2017-08-26T07:16:27.059Z,80.70
2017-08-26T07:18:54.775Z,82.10
2017-08-26T07:21:22.498Z,84.00
2017-08-26T07:23:50.229Z,85.00
2017-08-26T07:26:17.950Z,84.60
2017-08-26T07:28:45.666Z,83.40
2017-08-26T07:31:13.390Z,82.90
2017-08-26T07:33:41.125Z,83.30
2017-08-26T07:36:08.862Z,85.10
2017-08-26T07:38:36.583Z,82.60
2017-08-26T07:41:04.307Z,82.70
2017-08-26T07:43:32.026Z,84.70
2017-08-26T07:45:59.743Z,84.40
2017-08-26T07:48:27.459Z,85.40
2017-08-26T07:50:55.262Z,85.90
2017-08-26T07:53:22.982Z,87.20
2017-08-26T07:55:50.701Z,87.50
2017-08-26T07:58:18.418Z,87.20
2017-08-26T08:00:46.197Z,85.90
2017-08-26T08:03:13.942Z,86.70
2017-08-26T08:05:41.663Z,88.00
2017-08-26T08:08:09.386Z,89.30
2017-08-26T08:10:37.102Z,90.10
2017-08-26T08:13:04.830Z,90.50
2017-08-26T08:15:32.550Z,91.00
2017-08-26T08:18:00.271Z,91.50
2017-08-26T08:20:27.993Z,91.80
2017-08-26T08:22:55.719Z,92.00
2017-08-26T08:25:23.438Z,92.00
2017-08-26T08:27:51.159Z,92.20
2017-08-26T08:30:18.883Z,92.40
2017-08-26T08:32:46.603Z,92.50
2017-08-26T08:35:14.330Z,92.90
2017-08-26T08:37:42.050Z,93.40
2017-08-26T08:40:09.823Z,93.90
2017-08-26T08:42:37.558Z,93.60
2017-08-26T08:45:05.283Z,93.90
2017-08-26T08:47:33.059Z,93.30
2017-08-26T08:50:00.784Z,93.30
2017-08-26T08:52:28.498Z,93.20
2017-08-26T08:54:56.343Z,93.20
2017-08-26T08:57:24.116Z,92.80
2017-08-26T08:59:51.842Z,92.50
2017-08-26T09:02:19.740Z,92.00
2017-08-26T09:04:47.607Z,91.20
2017-08-26T09:07:15.474Z,90.70
2017-08-26T09:09:43.341Z,90.80
2017-08-26T09:12:11.208Z,90.40
2017-08-26T09:14:39.076Z,89.60
2017-08-26T09:17:07.046Z,88.50
2017-08-26T09:19:34.779Z,87.20
2017-08-26T09:22:02.501Z,85.60
2017-08-26T09:24:30.223Z,84.40
2017-08-26T09:26:57.943Z,86.00
2017-08-26T09:29:26.382Z,86.20
2017-08-26T09:31:54.103Z,84.60
2017-08-26T09:34:21.834Z,82.30
2017-08-26T09:36:50.087Z,83.10
2017-08-26T09:39:17.953Z,84.70
2017-08-26T09:41:45.820Z,83.20
2017-08-26T09:44:13.687Z,83.60
2017-08-26T09:46:41.660Z,84.10
2017-08-26T09:49:09.940Z,83.10
2017-08-26T09:51:37.904Z,82.00
2017-08-26T09:54:05.771Z,80.80
2017-08-26T09:56:33.575Z,80.00
2017-08-26T09:59:01.403Z,81.60
2017-08-26T10:01:29.270Z,80.30
2017-08-26T10:03:57.138Z,79.00
2017-08-26T10:06:25.008Z,79.80
2017-08-26T10:08:52.873Z,81.80
2017-08-26T10:11:20.739Z,79.50
2017-08-26T10:13:48.607Z,76.90
2017-08-26T10:16:16.474Z,76.60
2017-08-26T10:18:44.230Z,78.00
2017-08-26T10:21:11.958Z,77.80
2017-08-26T10:23:39.702Z,79.40
2017-08-26T10:26:07.430Z,77.80
2017-08-26T10:28:35.182Z,76.30
2017-08-26T10:31:03.015Z,75.10
2017-08-26T10:33:30.776Z,75.80
2017-08-26T10:35:58.592Z,77.50
2017-08-26T10:38:26.460Z,73.00
2017-08-26T10:40:54.327Z,75.20
2017-08-26T10:43:22.195Z,72.80
2017-08-26T10:45:50.062Z,73.70
2017-08-26T10:48:17.929Z,72.80
2017-08-26T10:50:45.796Z,73.20
2017-08-26T10:53:13.662Z,72.30
2017-08-26T10:55:41.530Z,75.00
2017-08-26T10:58:09.500Z,73.90
2017-08-26T11:00:37.367Z,74.50
2017-08-26T11:03:05.234Z,75.40
2017-08-26T11:05:33.102Z,75.50
2017-08-26T11:08:00.969Z,75.90
2017-08-26T11:10:28.840Z,74.00
2017-08-26T11:12:56.706Z,69.70
2017-08-26T11:15:24.572Z,69.60
2017-08-26T11:17:52.441Z,70.80
2017-08-26T11:20:20.310Z,69.60
2017-08-26T11:22:48.178Z,68.20
2017-08-26T11:25:16.043Z,70.70
2017-08-26T11:27:43.908Z,66.40
2017-08-26T11:30:11.785Z,67.90
2017-08-26T11:32:39.642Z,67.70
2017-08-26T11:35:07.509Z,67.60
2017-08-26T11:37:36.219Z,68.50
2017-08-26T11:40:04.167Z,68.80
2017-08-26T11:42:31.929Z,68.40
2017-08-26T11:45:00.004Z,68.90
2017-08-26T11:47:27.869Z,69.20
2017-08-26T11:49:55.736Z,71.30
2017-08-26T11:52:23.609Z,67.30
2017-08-26T11:54:51.475Z,67.60
2017-08-26T11:57:19.343Z,67.80
2017-08-26T11:59:47.205Z,64.10
2017-08-26T12:02:15.072Z,66.90
2017-08-26T12:04:42.942Z,64.40
2017-08-26T12:07:10.808Z,65.20
2017-08-26T12:09:38.674Z,66.10
2017-08-26T12:12:06.541Z,67.90
2017-08-26T12:14:34.409Z,65.70
2017-08-26T12:17:02.206Z,67.80
2017-08-26T12:19:30.145Z,68.50
2017-08-26T12:21:58.012Z,66.30
2017-08-26T12:24:25.877Z,67.70
2017-08-26T12:26:53.745Z,66.00
2017-08-26T12:29:21.612Z,66.20
2017-08-26T12:31:49.582Z,67.20
2017-08-26T12:34:17.453Z,66.90
2017-08-26T12:36:45.317Z,66.00
2017-08-26T12:39:13.183Z,65.60
2017-08-26T12:41:41.075Z,65.40
2017-08-26T12:44:08.918Z,64.80
2017-08-26T12:46:36.785Z,62.30
2017-08-26T12:49:04.653Z,61.00
2017-08-26T12:51:32.519Z,61.50
2017-08-26T12:54:00.387Z,61.60
2017-08-26T12:56:28.253Z,59.60
2017-08-26T12:58:56.121Z,59.10
2017-08-26T13:01:23.988Z,61.30
2017-08-26T13:03:51.855Z,59.50
2017-08-26T13:06:19.723Z,59.70
2017-08-26T13:08:47.594Z,58.30
2017-08-26T13:11:15.457Z,58.00
2017-08-26T13:13:43.324Z,56.90
2017-08-26T13:16:11.191Z,58.40
2017-08-26T13:18:39.059Z,57.30
2017-08-26T13:21:06.926Z,57.80
2017-08-26T13:23:34.794Z,58.20
2017-08-26T13:26:02.668Z,59.40
2017-08-26T13:28:30.528Z,58.50
2017-08-26T13:30:58.396Z,57.30
2017-08-26T13:33:26.262Z,57.20
2017-08-26T13:35:54.130Z,56.90
2017-08-26T13:38:21.996Z,57.80
2017-08-26T13:40:49.865Z,59.30
2017-08-26T13:43:17.731Z,58.70
2017-08-26T13:45:45.598Z,55.60
2017-08-26T13:48:13.465Z,56.50
2017-08-26T13:50:41.231Z,57.30
2017-08-26T13:53:09.097Z,55.80
2017-08-26T13:55:36.968Z,58.30
2017-08-26T13:58:04.832Z,58.20
2017-08-26T14:00:32.699Z,57.40
2017-08-26T14:03:00.566Z,58.10
2017-08-26T14:05:28.433Z,57.70
2017-08-26T14:07:56.299Z,58.40
2017-08-26T14:10:24.168Z,57.10
2017-08-26T14:12:52.036Z,56.90
2017-08-26T14:15:19.902Z,56.30
2017-08-26T14:17:47.769Z,56.20
2017-08-26T14:20:15.636Z,56.20
2017-08-26T14:22:43.503Z,56.20
2017-08-26T14:25:14.357Z,55.20
2017-08-26T14:27:45.672Z,55.60
2017-08-26T14:30:18.263Z,55.60
2017-08-26T14:32:49.449Z,58.20
2017-08-26T14:35:21.963Z,59.60
2017-08-26T14:37:53.399Z,59.30
2017-08-26T14:40:24.598Z,59.30
2017-08-26T14:42:53.835Z,59.10
2017-08-26T14:45:21.679Z,60.70
2017-08-26T14:47:51.102Z,61.00
2017-08-26T14:50:20.171Z,62.20
2017-08-26T14:52:48.021Z,60.50
2017-08-26T14:55:16.406Z,62.30
2017-08-26T14:57:47.543Z,61.60
2017-08-26T15:00:18.071Z,60.30
2017-08-26T15:02:51.281Z,61.30
2017-08-26T15:05:23.619Z,62.40
2017-08-26T15:07:55.905Z,62.50
2017-08-26T15:10:28.068Z,62.40
2017-08-26T15:13:01.264Z,60.20
2017-08-26T15:15:34.393Z,59.50
2017-08-26T15:18:05.288Z,59.70
2017-08-26T15:20:35.479Z,59.80
2017-08-26T15:23:06.651Z,58.90
2017-08-26T15:25:42.651Z,56.50
2017-08-26T15:28:10.483Z,57.60
2017-08-26T15:30:38.359Z,56.50
2017-08-26T15:33:06.223Z,59.10
2017-08-26T15:35:37.245Z,59.80
2017-08-26T15:38:08.659Z,59.40
2017-08-26T15:40:40.267Z,58.90
2017-08-26T15:43:11.502Z,59.00
2017-08-26T15:45:43.658Z,58.30
2017-08-26T15:48:15.403Z,59.40
2017-08-26T15:50:48.089Z,57.90
2017-08-26T15:53:21.128Z,59.00
2017-08-26T15:55:55.688Z,58.90
2017-08-26T15:58:28.600Z,58.90
2017-08-26T16:01:01.995Z,58.60
2017-08-26T16:03:32.882Z,59.60
2017-08-26T16:06:04.119Z,57.80
2017-08-26T16:08:34.435Z,57.80
2017-08-26T16:11:04.189Z,57.80
2017-08-26T16:13:34.431Z,58.70
2017-08-26T16:16:05.842Z,58.30
2017-08-26T16:18:37.891Z,57.40
2017-08-26T16:21:10.145Z,58.80
2017-08-26T16:23:42.803Z,60.00
2017-08-26T16:26:14.927Z,60.60
2017-08-26T16:28:46.693Z,58.80
2017-08-26T16:31:18.126Z,60.40
2017-08-26T16:33:45.975Z,60.30
2017-08-26T16:36:17.326Z,60.70
2017-08-26T16:38:51.751Z,62.00
2017-08-26T16:41:22.936Z,63.30
2017-08-26T16:43:53.810Z,63.10
2017-08-26T16:46:25.495Z,62.30
2017-08-26T16:48:58.393Z,62.60
2017-08-26T16:51:29.939Z,62.80
2017-08-26T16:54:01.237Z,64.00
2017-08-26T16:56:32.943Z,64.60
2017-08-26T16:59:04.650Z,66.40
2017-08-26T17:01:36.757Z,67.70
2017-08-26T17:04:08.307Z,68.50
2017-08-26T17:06:39.163Z,70.30
2017-08-26T17:09:10.284Z,71.70
2017-08-26T17:11:41.180Z,73.40
2017-08-26T17:14:10.973Z,76.30
2017-08-26T17:16:40.369Z,78.10
2017-08-26T17:19:14.154Z,77.70
2017-08-26T17:21:45.865Z,78.20
2017-08-26T17:24:17.330Z,79.20
2017-08-26T17:26:48.833Z,80.20
2017-08-26T17:29:21.475Z,80.20
2017-08-26T17:31:53.809Z,80.80
2017-08-26T17:34:26.071Z,80.50
2017-08-26T17:36:58.279Z,81.20
2017-08-26T17:39:30.197Z,81.20
2017-08-26T17:42:02.301Z,81.80
2017-08-26T17:44:37.939Z,82.40
2017-08-26T17:47:09.498Z,83.00
2017-08-26T17:49:40.737Z,83.10
2017-08-26T17:52:11.582Z,83.80
2017-08-26T17:54:42.881Z,84.20
2017-08-26T17:57:15.341Z,85.70
2017-08-26T17:59:47.901Z,86.00
2017-08-26T18:02:20.455Z,86.40
2017-08-26T18:04:52.789Z,86.40
2017-08-26T18:07:24.785Z,86.50
2017-08-26T18:09:56.832Z,87.90
2017-08-26T18:12:28.455Z,88.00
2017-08-26T18:14:59.794Z,88.80
2017-08-26T18:17:29.939Z,89.10
2017-08-26T18:20:00.170Z,89.50
2017-08-26T18:22:30.959Z,89.80
2017-08-26T18:25:01.584Z,90.20
2017-08-26T18:27:33.369Z,90.20
2017-08-26T18:30:05.444Z,90.10
2017-08-26T18:32:37.442Z,90.20
2017-08-26T18:35:05.179Z,90.00
2017-08-26T18:37:32.903Z,90.00
2017-08-26T18:40:00.623Z,90.00
2017-08-26T18:42:28.350Z,90.40
2017-08-26T18:44:56.071Z,90.70
2017-08-26T18:47:23.790Z,90.90
2017-08-26T18:49:51.511Z,90.50
2017-08-26T18:52:19.231Z,90.40
2017-08-26T18:54:46.954Z,90.30
2017-08-26T18:57:14.682Z,90.50
2017-08-26T18:59:42.406Z,90.60
2017-08-26T19:02:10.122Z,90.60
2017-08-26T19:04:38.818Z,90.20
2017-08-26T19:07:06.547Z,90.20
2017-08-26T19:09:34.290Z,89.90
2017-08-26T19:12:02.016Z,89.90
2017-08-26T19:14:29.838Z,90.00
2017-08-26T19:16:57.557Z,90.00
2017-08-26T19:19:26.454Z,90.20
2017-08-26T19:21:54.209Z,90.10
2017-08-26T19:24:21.947Z,90.30
2017-08-26T19:26:49.674Z,90.40
2017-08-26T19:29:17.775Z,90.60
2017-08-26T19:31:45.502Z,90.30
2017-08-26T19:34:13.258Z,90.30
2017-08-26T19:36:40.986Z,90.60
2017-08-26T19:39:08.746Z,90.60
2017-08-26T19:41:36.466Z,90.40
2017-08-26T19:44:04.222Z,90.80
2017-08-26T19:46:31.953Z,90.90
2017-08-26T19:48:59.683Z,90.80
2017-08-26T19:51:27.542Z,90.70
2017-08-26T19:53:55.267Z,90.80
2017-08-26T19:56:22.994Z,90.70
2017-08-26T19:58:50.758Z,90.80
2017-08-26T20:01:18.487Z,90.70
2017-08-26T20:03:46.226Z,90.80
2017-08-26T20:06:13.953Z,90.80
2017-08-26T20:08:41.671Z,90.70
2017-08-26T20:11:09.407Z,90.70
2017-08-26T20:13:37.132Z,90.60
2017-08-26T20:16:04.859Z,90.80
2017-08-26T20:18:32.583Z,90.80
2017-08-26T20:21:00.335Z,90.80
2017-08-26T20:23:28.066Z,90.80
2017-08-26T20:25:55.790Z,90.90
2017-08-26T20:28:23.508Z,91.30
2017-08-26T20:30:51.223Z,91.10
2017-08-26T20:33:18.943Z,91.00
2017-08-26T20:35:46.944Z,91.00
2017-08-26T20:38:14.706Z,91.00
2017-08-26T20:40:42.422Z,91.00
2017-08-26T20:43:10.161Z,90.90
2017-08-26T20:45:37.903Z,90.90
2017-08-26T20:48:05.624Z,91.10
2017-08-26T20:50:33.350Z,90.90
2017-08-26T20:53:01.114Z,90.70
2017-08-26T20:55:28.904Z,90.70
2017-08-26T20:57:56.679Z,90.50
2017-08-26T21:00:24.449Z,90.50
2017-08-26T21:02:52.211Z,90.80
2017-08-26T21:05:20.003Z,91.90
2017-08-26T21:07:47.727Z,92.30
2017-08-26T21:10:15.446Z,93.00
2017-08-26T21:12:43.241Z,92.90
2017-08-26T21:15:10.966Z,92.90
2017-08-26T21:17:38.706Z,93.00
2017-08-26T21:20:06.430Z,92.40
2017-08-26T21:22:34.150Z,92.00
2017-08-26T21:25:01.878Z,92.40
2017-08-26T21:27:29.607Z,92.90
2017-08-26T21:29:57.359Z,92.60
2017-08-26T21:32:25.091Z,92.40
2017-08-26T21:34:52.827Z,92.20
2017-08-26T21:37:20.557Z,91.90
2017-08-26T21:39:48.287Z,91.80
2017-08-26T21:42:16.035Z,93.20
2017-08-26T21:44:43.762Z,92.50
2017-08-26T21:47:11.492Z,92.30
2017-08-26T21:49:39.227Z,92.20
2017-08-26T21:52:06.970Z,92.50
2017-08-26T21:54:34.693Z,92.30
2017-08-26T21:57:02.476Z,91.80
2017-08-26T21:59:30.203Z,92.40
2017-08-26T22:01:57.919Z,93.10
2017-08-26T22:04:25.670Z,93.60
2017-08-26T22:06:53.391Z,93.70
2017-08-26T22:09:21.145Z,94.10
2017-08-26T22:11:48.898Z,94.10
2017-08-26T22:14:16.634Z,93.90
2017-08-26T22:16:44.362Z,93.50
2017-08-26T22:19:12.110Z,93.10
2017-08-26T22:21:39.866Z,92.60
2017-08-26T22:24:15.486Z,92.20
2017-08-26T22:26:43.206Z,92.10
2017-08-26T22:29:10.935Z,92.00
2017-08-26T22:31:38.659Z,91.80
2017-08-26T22:34:06.395Z,91.70
2017-08-26T22:36:34.119Z,91.70
2017-08-26T22:39:01.850Z,91.80
2017-08-26T22:41:29.574Z,91.00
2017-08-26T22:43:57.298Z,90.70
2017-08-26T22:46:25.058Z,90.50
2017-08-26T22:48:52.795Z,90.60
2017-08-26T22:51:20.522Z,90.80
2017-08-26T22:53:48.263Z,91.10
2017-08-26T22:56:16.011Z,91.20
2017-08-26T22:58:43.740Z,91.80
2017-08-26T23:01:11.654Z,92.10
2017-08-26T23:03:39.370Z,91.80
2017-08-26T23:06:07.095Z,92.30
2017-08-26T23:08:34.847Z,92.00
2017-08-26T23:11:03.330Z,91.70
2017-08-26T23:13:31.070Z,91.70
2017-08-26T23:15:58.801Z,91.40
2017-08-26T23:18:26.527Z,91.70
2017-08-26T23:20:54.248Z,91.90
2017-08-26T23:23:22.003Z,92.30
2017-08-26T23:25:49.727Z,92.10
2017-08-26T23:28:18.211Z,91.60
2017-08-26T23:30:45.950Z,91.60
2017-08-26T23:33:13.671Z,91.50
2017-08-26T23:35:41.396Z,91.40
2017-08-26T23:38:09.883Z,91.10
2017-08-26T23:40:37.622Z,91.10
2017-08-26T23:43:05.339Z,91.50
2017-08-26T23:45:33.104Z,91.70
2017-08-26T23:48:00.857Z,91.60
2017-08-26T23:50:28.615Z,91.60
2017-08-26T23:52:56.344Z,91.50
2017-08-26T23:55:24.072Z,91.30
2017-08-26T23:57:51.802Z,91.10
